Portada
METAR-TAF:

METAR-TAF

Aeroports :

Trang, Tailàndia

latitud: 07-31N, longitud: 099-37E, altitud: 14 m

Observació

L'informe es va fer fa 47 minuts, a les 01:00 UTC
Vent 2 kt amb direcció variable
Temperatura 27°C
Humitat 89%
Pressió 1012 hPa
Visibilitat 10 km o més
Escasses núvols a una alçada de 2500 ft

METAR: VTST 180100Z VRB02KT 9999 FEW025 27/25 Q1012 NOSIG

Hora: 08:47 (01:47 UTC)

Pronòstic

L'informe es va fer fa 2 hores i 47 minuts, a les 23:00 UTC
Pronòstic vàlid del 18 a les 00 UTC al 18 a les 24 UTC
Vent kt del Nord
Visibilitat 10 km o més
Escasses núvols a una alçada de 2000 ft
Evolucionant progressivament
l' 18 a les 02 UTC al 18 a les 04 UTC
Vent 6 kt del Sud-Oest
Evolucionant progressivament
l' 18 a les 14 UTC al 18 a les 16 UTC
Vent kt del Nord

TAF: VTST 172300Z 1800/1824 00000KT 9999 FEW020 BECMG 1802/1804 22006KT BECMG 1814/1816 00000KT

Observacions i pronòstics meteorològics de més de 4000 aeroports (METAR i TAF).

Les estacions disponibles són els punts grocs i vermells al mapa.

Posi el ratolí al punt desitjat per veure el nom de l'estació.

Feu clic per veure les observacions i els pronòstics meteorològics.

Per canviar el mapa: feu clic els botons verds amb una creu de color negre per apropar; al botó verd amb un guió per allunyar la imatge; o en les fletxes verdes per a mapes adjacents.


METAR-TAF: